createdAt,value
2023-03-24T00:03:38.421Z,60.6
2023-03-24T00:09:18.075Z,60.4
2023-03-24T00:14:38.766Z,60.4
2023-03-24T00:20:15.699Z,60.3
2023-03-24T00:25:50.883Z,60.3
2023-03-24T00:31:11.445Z,60.2
2023-03-24T00:37:04.148Z,60.1
2023-03-24T00:42:55.085Z,60
2023-03-24T00:48:47.336Z,59.9
2023-03-24T00:53:53.025Z,59.8
2023-03-24T00:59:44.235Z,59.8
2023-03-24T01:05:04.667Z,59.7
2023-03-24T01:10:56.731Z,59.6
2023-03-24T01:16:32.431Z,59.5
2023-03-24T01:22:08.423Z,59.4
2023-03-24T01:28:00.602Z,59.4
2023-03-24T01:33:52.594Z,59.3
2023-03-24T01:39:44.552Z,59.2
2023-03-24T01:45:38.924Z,59.1
2023-03-24T01:51:32.581Z,59.1
2023-03-24T01:57:23.433Z,59
2023-03-24T02:03:00.294Z,58.9
2023-03-24T02:08:52.402Z,58.8
2023-03-24T02:14:28.756Z,58.8
2023-03-24T02:20:05.671Z,58.7
2023-03-24T02:25:41.240Z,58.6
2023-03-24T02:31:32.870Z,58.5
2023-03-24T02:37:24.362Z,58.4
2023-03-24T02:42:45.187Z,58.4
2023-03-24T02:48:37.407Z,58.3
2023-03-24T02:54:28.994Z,58.2
2023-03-24T03:00:20.484Z,58.1
2023-03-24T03:06:13.977Z,58.1
2023-03-24T03:12:05.283Z,58
2023-03-24T03:17:56.657Z,57.9
2023-03-24T03:23:33.081Z,57.8
2023-03-24T03:33:58.887Z,57.7
2023-03-24T03:39:35.271Z,57.6
2023-03-24T03:45:10.931Z,57.6
2023-03-24T03:50:47.016Z,57.5
2023-03-24T03:56:18.204Z,57.4
2023-03-24T04:02:09.674Z,57.3
2023-03-24T04:07:40.164Z,57.3
2023-03-24T04:13:16.371Z,57.2
2023-03-24T04:19:09.182Z,57.1
2023-03-24T04:24:44.238Z,57
2023-03-24T04:30:35.222Z,56.9
2023-03-24T04:36:27.735Z,56.9
2023-03-24T04:42:21.109Z,56.8
2023-03-24T04:48:12.642Z,56.8
2023-03-24T04:53:48.872Z,56.7
2023-03-24T04:59:41.144Z,56.3
2023-03-24T05:05:33.213Z,56.1
2023-03-24T05:11:27.440Z,56.1
2023-03-24T05:17:21.211Z,56
2023-03-24T05:22:57.968Z,55.9
2023-03-24T05:28:34.303Z,55.8
2023-03-24T05:34:11.104Z,55.3
2023-03-24T05:39:47.851Z,55.1
2023-03-24T05:45:39.989Z,54.9
2023-03-24T05:51:32.082Z,54.9
2023-03-24T05:57:23.401Z,54.8
2023-03-24T06:02:59.913Z,54.7
2023-03-24T06:08:52.793Z,54.6
2023-03-24T06:14:44.534Z,54.5
2023-03-24T06:20:21.093Z,54.4
2023-03-24T06:26:12.296Z,54.4
2023-03-24T06:31:49.470Z,54.3
2023-03-24T06:45:46.167Z,54.1
2023-03-24T06:51:38.414Z,54
2023-03-24T06:57:32.135Z,53.9
2023-03-24T07:03:25.209Z,53.8
2023-03-24T07:10:18.236Z,53.8
2023-03-24T07:16:11.949Z,53.7
2023-03-24T07:22:04.227Z,53.5
2023-03-24T07:27:59.183Z,53.4
2023-03-24T07:34:03.178Z,53.3
2023-03-24T07:39:56.012Z,53.3
2023-03-24T07:45:48.321Z,53.1
2023-03-24T07:51:56.172Z,53.1
2023-03-24T07:57:48.709Z,53
2023-03-24T08:03:42.725Z,52.9
2023-03-24T08:09:22.316Z,52.9
2023-03-24T08:15:24.561Z,52.8
2023-03-24T08:21:11.927Z,52.7
2023-03-24T08:26:50.195Z,52.6
2023-03-24T08:32:42.767Z,52.5
2023-03-24T08:38:39.527Z,52.4
2023-03-24T08:49:55.873Z,52.3
2023-03-24T08:55:32.388Z,52.3
2023-03-24T09:01:24.083Z,52.2
2023-03-24T09:07:12.519Z,52.1
2023-03-24T09:12:18.026Z,52
2023-03-24T09:23:33.172Z,51.9
2023-03-24T09:29:24.826Z,51.8
2023-03-24T09:35:04.619Z,50.9
2023-03-24T09:40:42.261Z,50.3
2023-03-24T09:46:21.222Z,50.6
2023-03-24T09:51:57.421Z,51.3
2023-03-24T09:57:33.947Z,51.9
2023-03-24T10:03:30.566Z,52.5
2023-03-24T10:09:07.118Z,53
2023-03-24T10:14:58.411Z,53.6
2023-03-24T10:21:12.407Z,54.3
2023-03-24T10:27:03.495Z,54.8
2023-03-24T10:32:40.349Z,55.4
2023-03-24T10:38:01.460Z,55.9
2023-03-24T10:44:14.942Z,56.5
2023-03-24T10:50:11.849Z,57.1
2023-03-24T10:56:06.088Z,57.6
2023-03-24T11:01:46.048Z,58.1
2023-03-24T11:13:00.027Z,58.9
2023-03-24T11:19:02.118Z,59.4
2023-03-24T11:24:55.684Z,59.9
2023-03-24T11:30:32.197Z,60.3
2023-03-24T11:36:38.447Z,60.8
2023-03-24T11:42:29.430Z,61.2
2023-03-24T11:48:06.692Z,61.4
2023-03-24T11:54:00.530Z,61.7
2023-03-24T11:59:37.116Z,62
2023-03-24T12:05:31.532Z,62.4
2023-03-24T12:11:25.526Z,62.6
2023-03-24T12:17:46.012Z,62.8
2023-03-24T12:23:37.320Z,62.9
2023-03-24T12:29:28.282Z,62.8
2023-03-24T12:35:19.894Z,63.1
2023-03-24T12:41:15.576Z,63.3
2023-03-24T12:47:19.386Z,63.5
2023-03-24T12:53:07.481Z,63.7
2023-03-24T12:59:00.209Z,63.8
2023-03-24T13:04:53.714Z,64
2023-03-24T13:10:41.568Z,64.1
2023-03-24T13:16:45.786Z,64.1
2023-03-24T13:22:38.917Z,64
2023-03-24T13:28:52.069Z,64
2023-03-24T13:34:37.954Z,63.9
2023-03-24T13:40:29.980Z,63.9
2023-03-24T13:46:06.568Z,63.9
2023-03-24T13:51:43.480Z,63.9
2023-03-24T13:57:35.698Z,63.8
2023-03-24T14:03:12.653Z,63.8
2023-03-24T14:09:04.725Z,63.8
2023-03-24T14:14:42.181Z,63.7
2023-03-24T14:20:02.716Z,63.6
2023-03-24T14:25:54.175Z,63.6
2023-03-24T14:31:47.235Z,63.5
2023-03-24T14:37:53.785Z,63.5
2023-03-24T14:43:53.267Z,63.4
2023-03-24T14:50:01.263Z,63.4
2023-03-24T14:55:36.905Z,63.3
2023-03-24T15:01:06.844Z,63.3
2023-03-24T15:07:01.725Z,63.3
2023-03-24T15:12:52.558Z,63.2
2023-03-24T15:18:53.891Z,63.1
2023-03-24T15:24:35.923Z,63.1
2023-03-24T15:30:27.632Z,63
2023-03-24T15:36:19.232Z,63
2023-03-24T15:42:05.649Z,62.9
2023-03-24T15:47:21.176Z,62.9
2023-03-24T15:52:57.667Z,62.9
2023-03-24T15:58:49.086Z,62.8
2023-03-24T16:04:41.340Z,62.8
2023-03-24T16:10:45.201Z,62.7
2023-03-24T16:16:36.547Z,62.6
2023-03-24T16:21:57.624Z,62.6
2023-03-24T16:27:18.565Z,62.6
2023-03-24T16:32:55.273Z,62.4
2023-03-24T16:38:15.981Z,62.4
2023-03-24T16:44:07.811Z,62.4
2023-03-24T16:50:02.018Z,62.4
2023-03-24T16:55:53.217Z,62.3
2023-03-24T17:01:45.016Z,62.3
2023-03-24T17:07:37.645Z,62.2
2023-03-24T17:13:30.643Z,62.1
2023-03-24T17:19:21.937Z,62.1
2023-03-24T17:24:42.568Z,62
2023-03-24T17:30:33.349Z,62
2023-03-24T17:36:38.715Z,61.9
2023-03-24T17:42:14.234Z,61.9
2023-03-24T17:48:05.432Z,61.8
2023-03-24T17:53:57.100Z,61.8
2023-03-24T17:59:33.027Z,61.7
2023-03-24T18:05:26.966Z,61.7
2023-03-24T18:11:20.536Z,61.6
2023-03-24T18:17:25.309Z,61.6
2023-03-24T18:23:16.801Z,61.5
2023-03-24T18:29:08.358Z,61.4
2023-03-24T18:35:01.174Z,61.4
2023-03-24T18:40:53.370Z,61.3
2023-03-24T18:46:44.851Z,61.3
2023-03-24T18:52:36.755Z,61.2
2023-03-24T18:58:13.156Z,61.2
2023-03-24T19:03:50.603Z,61.1
2023-03-24T19:09:26.040Z,61.1
2023-03-24T19:14:49.231Z,61
2023-03-24T19:20:25.723Z,60.9
2023-03-24T19:26:01.409Z,60.9
2023-03-24T19:31:52.889Z,60.9
2023-03-24T19:37:44.741Z,60.8
2023-03-24T19:43:38.631Z,60.8
2023-03-24T19:49:29.784Z,60.8
2023-03-24T19:55:22.073Z,60.7
2023-03-24T20:01:13.540Z,60.6
2023-03-24T20:07:08.798Z,60.6
2023-03-24T20:12:46.995Z,60.5
2023-03-24T20:18:23.391Z,60.4
2023-03-24T20:24:14.747Z,60.4
2023-03-24T20:30:06.574Z,60.4
2023-03-24T20:35:57.974Z,60.3
2023-03-24T20:41:49.243Z,60.3
2023-03-24T20:47:41.046Z,60.2
2023-03-24T20:53:32.448Z,60.2
2023-03-24T20:59:10.770Z,60.1
2023-03-24T21:05:10.607Z,60.1
2023-03-24T21:10:45.991Z,60
2023-03-24T21:17:00.850Z,59.9
2023-03-24T21:22:55.317Z,59.9
2023-03-24T21:28:47.092Z,59.8
2023-03-24T21:34:38.958Z,59.8
2023-03-24T21:40:32.941Z,59.8
2023-03-24T21:46:25.771Z,59.7
2023-03-24T21:52:18.638Z,59.6
2023-03-24T21:58:10.352Z,59.6
2023-03-24T22:03:48.056Z,59.6
2023-03-24T22:09:39.128Z,59.5
2023-03-24T22:15:00.397Z,59.4
2023-03-24T22:20:54.520Z,59.4
2023-03-24T22:26:46.938Z,59.3
2023-03-24T22:32:39.843Z,59.3
2023-03-24T22:38:01.323Z,59.3
2023-03-24T22:43:53.727Z,59.2
2023-03-24T22:49:46.144Z,59.1
2023-03-24T22:55:37.353Z,59.1
2023-03-24T23:01:29.073Z,59.1
2023-03-24T23:07:30.290Z,59
2023-03-24T23:13:21.381Z,58.9
2023-03-24T23:18:27.665Z,58.9
2023-03-24T23:23:48.363Z,58.9
2023-03-24T23:29:33.753Z,58.8
2023-03-24T23:35:11.230Z,58.8
2023-03-24T23:40:49.766Z,58.7
2023-03-24T23:46:25.822Z,58.7
2023-03-24T23:52:03.076Z,58.6
